Logs for Gary Sutton, Castle Rock, CO, USA [DM79oi]
Paging Controls
Date UTC KHz ID Location S/P ITU Region GSQ LSB USB Sec. Fmt. Power KM Miles
2020-04-27 0901 391 DDP San Juan / Dorado / Luiz Munoz Marin Intl PR PTR ca FK68tl 2000 4351 2704
2020-04-26 1016 389 YWB Kelowna BC CAN na DN09et 1647 1023
2020-04-26 0945 392 AGZ Wagner SD USA na EN03ub 25 682 424
2020-04-26 0940 396 YPH Inukjuak QC CAN na FO08wk 500 2844 1767
2020-04-26 0919 397 ZSS Yellowhead (Saskatoon) SK CAN na DO62pf 25 1439 894
2020-04-26 0912 391 GXD Nacogdoches TX USA na EM21pp 25 1250 777
2020-04-26 0904 392 PNA 'Wenz' Pinedale WY USA na DN52ct 25 568 353
2020-04-26 0901 399 ZHD 'Thunder' Dryden ON CAN na EN39qt 25 1506 936
2020-04-26 0901 388 MM Fort Mc Murray AB CAN na DO46hp 125 1981 1231
2020-04-26 0900 385 QV Yorkton SK CAN na DO81rf 100 1332 827
2020-04-26 0458 395 YL Lynn Lake MB CAN na DO96lt 1600 1960 1218
2020-04-25 1442 395 ULS Ulysses KS USA na DM97ho 355 221
2020-04-25 1440 386 SYF St. Francis KS USA na DM99cr 25 261 162
2020-01-27 0758 373 YXK Rimouski QC CAN na FN58rl 25 3042 1890
2020-01-27 0710 379 UG 'Wauke' Waukegan (Chicago) IL USA na EN62cl 25 1467 912
2020-01-27 0706 373 2Q Mont-Laurier QC CAN na FN26go 25 2501 1554
2020-01-27 0706 382 IRS Sturgis MI USA na EN71gt 25 1652 1026
2020-01-27 0703 376 LC 'Pickl' Columbus OH USA na EM89nv 25 1873 1164
2020-01-27 0701 381.5 SJX 'St James' Beaver Island MI USA na EN75fq 25 1722 1070
2020-01-26 1112 383 LB 'Panck' Liberal KS USA na DM96mx 427 265
2020-01-26 0607 379 BRA 'Broad River' Asheville NC USA na EM85sg 100 2021 1256
2020-01-26 0559 375 DS Searcy AR USA na EM45cc 25 1243 772
2020-01-26 0552 375 FS Fort Simpson NT CAN na CP91is 280 2733 1698
2020-01-25 0815 382 SP 'Huskk' Springfield IL USA na EM59cs 25 1285 798
2020-01-25 0803 372 YCO Coppermine / Kugluktuk NU CAN na DP27kt 1000 3226 2005
2020-01-25 0654 378 UX Hall Beach NU CAN na EP98is 400 3560 2212
2020-01-25 0650 374 HY 'Nette' Hays KS USA na EM08js 486 302
2020-01-25 0639 379 RUE Russellville AR USA na EM35kg 25 1126 700
2020-01-25 0636 382 YE Fort Nelson BC CAN na CO88pt 100 2508 1558
2020-01-25 0629 383 CNP Chappell NE USA na DN81sb 25 274 171
2020-01-25 0628 382 YPL Pickle Lake ON CAN na EO41vk 500 1754 1090
2020-01-25 0627 380 OEL Oakley KS USA na DM99oc 25 346 215
2020-01-25 0627 383 PI 'Tyhee' Pocatello ID USA na DN32rx 400 763 474
2020-01-25 0625 378 RJ Roberval QC CAN na FN38un 500 2770 1721
2020-01-25 0625 380 GC 'Deryk' Gillette WY USA na DN74fg 25 550 342
2020-01-25 0622 379 DL 'Pykla' Duluth MN USA na EN36tu 1305 811
2020-01-25 0621 376 YAG Fort Frances ON CAN na EN38fq 40 1370 851
2020-01-25 0621 376 K2 Olds-Didsbury AB CAN na DO21wr 1553 965
2020-01-25 0620 375 BM Balmoral MB CAN na EO10id 25 1336 830
2020-01-25 0619 374 EX Rutland (Kelowna) BC CAN na DN09hw 1642 1020
2020-01-25 0617 372 ZPA Glass (Prince Albert) SK CAN na DO73ff 25 1543 959
2020-01-25 0616 371 GW Jarpik Kuujjuarapik QC CAN na FO15cg 500 2667 1657
2020-01-25 0130 370 YBV Berens River MB CAN na EO12li 25 1563 971
2020-01-01 2005 407 OOC 'Campi' Natchitoches LA USA na EM31lp 25 1364 847
2020-01-01 1850 368 AN 'Alamo' San Antonio TX USA na EL09ro 400 1225 761
2020-01-01 0948 414 SU 'Salix' Sioux City IA USA na EN12uh 40 787 489
2020-01-01 0854 365 MA Mayo YT CAN na CP23bp 500 3384 2103
2020-01-01 0853 399 ZHD 'Thunder' Dryden ON CAN na EN39qt 25 1506 936
2020-01-01 0852 397 ZSS Yellowhead (Saskatoon) SK CAN na DO62pf 25 1439 894
2020-01-01 0849 393 2M Opapimiskan Lake (Musselwhite Mine) ON CAN na EO42to 25 1839 1143
2020-01-01 0847 223 YYW Armstrong ON CAN na EO50lh 100 1733 1077
2020-01-01 0845 233 ALJ Johnstone Point Island AK ALS na BP60ql 1000 3704 2301
2020-01-01 0845 346 GHW Glenwood MN USA na EN25ip 25 1045 650
2020-01-01 0841 276 YEL Elliot Lake ON CAN na EN86qi 250 1959 1217
2020-01-01 0839 284 RT Rankin Inlet NU CAN na EP32wt 1000 2742 1704
2020-01-01 0837 272 LD 'Lubbi' Lubbock TX USA na DM93dp 25 692 430
2020-01-01 0835 275 AV St Andrews (Winnipeg) MB CAN na EO10lb 80 1337 831
2020-01-01 0833 276 ZTH 'Headframe' Thompson MB CAN na EO15ct 25 1901 1181
2020-01-01 0818 224 FSE Fosston MN USA na EN27co 25 1168 726
2020-01-01 0817 344 CGQ 'Powell' Corsicana TX USA na EM12sb 1105 687
2020-01-01 0817 407 CHD Chandler AZ USA na DM43cg 25 922 573
2020-01-01 0815 372 ZPA Glass (Prince Albert) SK CAN na DO73ff 25 1543 959
2020-01-01 0815 372 YCO Coppermine / Kugluktuk NU CAN na DP27kt 1000 3226 2005
2020-01-01 0811 410 TEST UNID XUN xx
2020-01-01 0810 406 2S High Prairie AB CAN na DO15sj 1982 1231
2020-01-01 0809 282 ROS Rush City MN USA na EN35mq 25 1196 743
2020-01-01 0808 338 HR 'Sebas' Harlingen TX USA na EL16eh 25 1596 991
2020-01-01 0808 341 FO 'Barro' Fort Dodge IA USA na EN22um 25 949 589
2020-01-01 0808 420 PK Olathe KS USA na EM28ps 25 872 542
2020-01-01 0808 314 VTN Valentine NE USA na DN92ru 25 527 328
2020-01-01 0808 407 PLT 'Platte Center' Columbus NE USA na EN11hl 50 671 417
2020-01-01 0807 365 YGZ Grise Fiord NU CAN na EQ86nk 100 4259 2646
2020-01-01 0806 341 DNI Denison TX USA na EM13pt 25 948 589
2020-01-01 0806 236 ZRJ Round Lake ON CAN na EO42iw 25 1827 1135
2020-01-01 0804 238 K5 Maple Creek SK CAN na DN59gv 1228 763
2020-01-01 0804 374 EX Rutland (Kelowna) BC CAN na DN09hw 1642 1020
2020-01-01 0804 216 YFA Fort Albany ON CAN na EO92de 200 2272 1412
2020-01-01 0803 220 HLE Hailey ID USA na DN23vh 50 900 559
2020-01-01 0803 379 RUE Russellville AR USA na EM35kg 25 1126 700
2020-01-01 0802 201 IP Mobile AZ USA na DM33tc 25 971 604
2020-01-01 0801 385 OCC 'Ocean Cape' Yakutat AK ALS na CO09dn 3311 2057
2020-01-01 0801 371 GW Jarpik Kuujjuarapik QC CAN na FO15cg 500 2667 1657
2020-01-01 0801 368 VX Dafoe SK CAN na DO71ru 80 1390 863
2020-01-01 0801 368 ZP Sandspit BC CAN na CO43ce 2557 1589
2020-01-01 0801 416 LB 'Panbe' North Platte NE USA na DN91rb 50 408 253
2020-01-01 0801 347 YK 'Cagur' Yankton NE USA na EN12iu 739 459
2020-01-01 0801 376 YAG Fort Frances ON CAN na EN38fq 40 1370 851
2020-01-01 0800 214 CHX Choix (Sinaloa) MEX ca DL56ur 1441 895
2020-01-01 0800 385 CPZ 'Chaparrosa Ranch' La Pryor TX USA na DL98xv 25 1242 771
2020-01-01 0800 391 EEF 'Elephant' Sisters Island AK ALS na CO28ie 3015 1873
2020-01-01 0800 414 8M Elk Point AB CAN na DO43ov 1679 1043
2020-01-01 0800 368 ROQ Ruston LA USA na EM32qo 25 1325 823
2020-01-01 0800 330 PWC Pine River MN USA na EN26tr 1177 731
2020-01-01 0800 404 XCR 'Ripley' Little Falls MN USA na EN26tb 50 1130 702
2020-01-01 0800 385 LN 'Potts' Lincoln NE USA na EN10or 45 698 433
2020-01-01 0800 209 IB Atikokan ON CAN na EN48ft 250 1488 924
2020-01-01 0558 335 BK 'CHRLZ' Brookings SD USA na EN14mi 25 854 530
2020-01-01 0538 412 CMY 'Mc Coy' Sparta WI USA na EN43qw 10 1280 796
2020-01-01 0513 263 YBB 'Pelly Bay' Kugaaruk NU CAN na EP58cm 1000 3366 2092
2020-01-01 0503 353 DI 'Noson' Dickinson ND USA na DN86pq 25 833 517
2020-01-01 0450 351 AE 'Dudle' Albuquerque NM USA na DM65pf 489 304
2020-01-01 0443 413 YHD Dryden ON CAN na EN39nu 250 1497 930
2019-12-31 2025 218 RL Red Lake ON CAN na EO31cb 1000 1557 968
2019-12-28 1006 305 OI 'Tommi' South Sioux City NE USA na EN12sl 25 781 485
2019-12-28 0604 365 FT 'Mufin' Fort Worth TX USA na EM12hv 25 979 608
2019-12-28 0022 414 GL 'Shugr' Goodland KS USA na DM99eh 25 272 169
2019-12-28 0017 374 HY 'Nette' Hays KS USA na EM08js 486 302
2019-12-28 0005 257 JYR York NE USA na EN10ev 25 633 393
2019-12-27 0834 264 HN 'Suybe' Shawnee OK USA na EM15mk 25 817 508
2019-12-27 0805 355 YWP Webequie ON CAN na EO62hx 100 2012 1250
2019-12-27 0759 278 ADG Adrian MI USA na EN71xu 50 1769 1099
2019-12-27 0718 420 FQ 'Montz' Fairmont MN USA na EN23tp 25 989 614
2019-12-27 0717 417 IY 'Chukk' Charles City IA USA na EN33pd 25 1093 679
2019-12-27 0713 263 3Z Russell MB CAN na DO90is 1298 807
2019-12-27 0713 253 GB 'Garno' Marshall MN USA na EN24bm 25 934 580
2019-12-27 0707 375 LQ 'Licol' Springfield IL USA na EM59ev 1299 807
2019-12-27 0703 338 UMP 'Metropolitan' Indianapolis IN USA na EM69xw 25 1604 996
2019-12-27 0700 267 HET Henryetta OK USA na EM15xj 25 889 552
2019-12-27 0700 224 MO Moosonee ON CAN na EO91qg 400 2290 1423
2019-12-27 0626 233 QN Nakina ON CAN na EO60qe 400 1864 1158
2019-12-27 0625 260 YAT 'Wapisk' Attawapiskat ON CAN na EO82sw 125 2272 1412
2019-12-27 0611 392 AGZ Wagner SD USA na EN03ub 25 682 424
2019-12-27 0607 403 AZC Colorado City AZ USA na DM36lx 40 768 477
2019-12-27 0605 395 OS 'Pober' Oshkosh WI USA na EN53ru 1438 893
2019-12-27 0602 392 FMZ 'Beklof' Fairmont NE USA na EN10fo 25 633 393
2019-12-27 0601 392 ML Charlevoix QC CAN na FN47uo 500 2903 1804
2019-12-27 0556 362 SB Sudbury ON CAN na EN96mp 400 2090 1299
2019-12-27 0552 332 VVV Ortonville MN USA na EN15sh 25 952 591
2019-12-27 0549 269 BEX Bloomfield IA USA na EN30sr 25 1060 659
2019-12-27 0541 342 PFT 'Piney' Pinecreek MN USA na EN28ax 1279 795
2019-12-27 0540 344 UNU Juneau WI USA na EN53pk 1413 878
2019-12-27 0539 365 AA 'Kenie' Fargo MN USA na EN17oa 100 1070 665
2019-12-27 0538 366 EOK Keokuk IA USA na EN40gl 25 1143 710
2019-12-27 0538 368 PNM Princeton MN USA na EN35en 25 1145 711
2019-12-27 0537 428 POH Pocahontas IA USA na EN22qr 25 931 578
2019-12-27 0535 387 CAV Clarion IA USA na EN32cr 25 995 618
2019-12-27 0532 356 PI 'Tungg' Peoria IL USA na EN50eo 40 1298 806
2019-12-27 0531 329 AAA 'Abraham' Lincoln IL USA na EN50hd 25 1319 820
2019-12-27 0530 293 UI Quincy IL USA na EM49iv 25 1157 719
2019-12-27 0529 263 CVM 'Civic Memorial' Alton IL USA na EM48xv 1272 790
2019-12-26 1535 233 OKS Oshkosh NE USA na DN81tj 25 306 190
2019-12-26 1533 221 QU Grande Prairie AB CAN na DO05od 50 2040 1268
2019-12-26 0857 335 YLD Chapleau ON CAN na EN87hs 100 1954 1214
2019-12-26 0856 332 CZX Crosbyton TX USA na DM93jo 715 444
2019-12-26 0856 329 PMV Plattsmouth NE USA na EN20bw 25 778 483
2019-12-26 0855 329 X2 Athabasca AB CAN na DO34jr 1821 1132
2019-12-26 0852 311 GK 'Jembo' Fort Smith AR USA na EM25sh 25 1017 632
2019-12-26 0852 382 YE Fort Nelson BC CAN na CO88pt 100 2508 1558
2019-12-26 0850 380 GC 'Deryk' Gillette WY USA na DN74fg 25 550 342
2019-12-26 0849 379 DL 'Pykla' Duluth MN USA na EN36tu 1305 811
2019-12-26 0841 332 FIS 'Fish Hook' Key West FL USA na EL94cn 400 2708 1683
2019-12-26 0831 295 8C Fairview AB CAN na DO06sb 2111 1312
2019-12-26 0830 287 PE Peace River AB CAN na DO16fe 56 2092 1300
2019-12-26 0830 293 FBY Fairbury NE USA na EN10ke 50 661 411
2019-12-26 0825 272 XS Prince George BC CAN na CO83qt 25 2095 1302
2019-12-26 0824 269 UDE Delta MB CAN na EO00ud 50 1304 810
2019-12-26 0823 375 FS Fort Simpson NT CAN na CP91is 280 2733 1698
2019-12-26 0823 266 PYX Perryton TX USA na DM96pj 25 486 302
2019-12-26 0822 257 LW Kelowna BC CAN na DO00hb 50 1651 1026
2019-12-26 0821 255 SW 'Blaki' Stillwater OK USA na EM16kf 50 758 471
2019-12-26 0820 257 HCY Cowley WY USA na DN54sv 50 686 426
2019-12-26 0818 248 QL Lethbridge AB CAN na DN39no 1306 811
2019-12-26 0817 245 CB Cambridge Bay NU CAN na DP79lc 1000 3307 2055
2019-12-26 0817 304 FH Mc Leod (Whitecourt) AB CAN na DO24cd 25 1841 1144
2019-12-26 0815 418 CW 'Mossy' Lake Charles LA USA na EM30jh 25 1456 905
2019-12-26 0815 245 FS 'Rokky' Sioux Falls SD USA na EN13ol 100 809 503
2019-12-26 0815 308 ZZD Calmar (Edmonton Intl Apt) AB CAN na DO33eg 1686 1048
2019-12-26 0814 241 YLL Lloydminster AB CAN na DO43xh 14 1602 995
2019-12-26 0814 300 YIV Island Lake MB CAN na EO23qu 500 1785 1109
2019-12-26 0813 296 LGD La Grande OR USA na DN15ai 25 1268 788
2019-12-26 0813 239 OJ High Level AB CAN na DO18kn 350 2309 1435
2019-12-26 0812 329 YEK Arviat NU CAN na EP21xc 500 2528 1571
2019-12-26 0812 366 YMW Maniwaki QC CAN na FN26ae 500 2457 1527
2019-12-26 0812 236 YZA Ashcroft BC CAN na CO90iq 500 1800 1119
2019-12-26 0811 329 BQP Bastrop LA USA na EM42bs 25 1370 851
2019-12-26 0810 320 TY Tyler / Indoo TX USA na EM22gj 100 1141 709
2019-12-26 0810 359 GGF Grant NE USA na DN90du 311 193
2019-12-26 0809 406 YLJ Meadow Lake SK CAN na DO54qd 15 1669 1037
2019-12-26 0809 305 Z1 Three Hills AB CAN na DO31jq 25 1517 943
2019-12-26 0808 326 PKZ 'Pickens' Pensacola FL USA na EM60jk 400 1880 1168
2019-12-26 0808 312 UNT Naramata (Penticton) BC CAN na DN09eo 1632 1014
2019-12-26 0807 340 YY Mont Joli QC CAN na FN58un 500 3061 1902
2019-12-26 0807 341 DB Burwash YT CAN na CP01mi 200 3371 2095
2019-12-26 0807 353 LI 'Lasky' Little Rock AR USA na EM34uq 400 1223 760
2019-12-26 0807 311 9Y Pincher Creek AB CAN na DN39am 50 1342 834
2019-12-26 0806 341 OIN Oberlin KS USA na DM99rt 25 368 228
2019-12-26 0805 212 LIU Littlefield TX USA na DM83tw 25 640 397
2019-12-26 0805 338 ZU Whitecourt AB CAN na DO24gb 1821 1132
2019-12-26 0804 334 YER Fort Severn ON CAN na EO65ex 195 2238 1390
2019-12-26 0803 347 SBX Shelby MT USA na DN48bm 50 1165 724
2019-12-26 0803 359 YQZ Quesnel BC CAN na CO82sx 500 2025 1258
2019-12-26 0802 207 YNE Norway House MB CAN na EO13bx 1000 1707 1061
2019-12-26 0802 356 ZF Yellowknife NT CAN na DP22sj 1000 2643 1642
2019-12-26 0801 353 PG Portage MB CAN na EN09vu 25 1277 794
2019-12-26 0800 389 TW 'Strik' Twin Falls ID USA na DN22tl 876 544
2019-12-26 0556 383 CNP Chappell NE USA na DN81sb 25 274 171
2019-12-26 0551 391 GXD Nacogdoches TX USA na EM21pp 25 1250 777
2019-12-26 0548 414 GRN Gordon NE USA na DN82vt 441 274
2019-12-26 0547 408 JDM 'Wheatfield' Colby KS USA na DM99lm 25 323 200
2019-12-26 0547 408 MW 'Pelly' Moses Lake WA USA na DN07ic 1453 903
2019-12-26 0546 402 CV Carlz Carlsbad NM USA na DM72tg 788 490
2019-12-26 0544 402 L4 Nipawin SK CAN na DO73xi 200 1557 968
2019-12-26 0536 359 SDR Snyder TX USA na DM92mq 25 817 508
2019-12-26 0533 415 CBC West End (Cayman Brac) CYM ca FK09bq 600 3233 2009
2019-12-26 0531 414 ATS Artesia NM USA na DM72su 25 723 449
2019-12-26 0530 402 M3 Kindersley SK CAN na DO51jm 1395 867
2019-12-26 0529 401 YPO Peawanuck ON CAN na EO74gx 125 2254 1401
2019-12-26 0528 400 QQ Comox BC CAN na CN79ms 1963 1220
2019-12-26 0524 395 YL Lynn Lake MB CAN na DO96lt 1600 1960 1218
2019-12-26 0524 392 PNA 'Wenz' Pinedale WY USA na DN52ct 25 568 353
2019-12-26 0523 389 YWB Kelowna BC CAN na DN09et 1647 1023
2019-12-26 0523 391 DDP San Juan / Dorado / Luiz Munoz Marin Intl PR PTR ca FK68tl 2000 4351 2704
2019-12-26 0522 388 JW 'Pigeon' Jumping Pound Creek AB CAN na DO21qb 15 1509 938
2019-12-26 0521 388 MM Fort Mc Murray AB CAN na DO46hp 125 1981 1231
2019-12-26 0521 385 QV Yorkton SK CAN na DO81rf 100 1332 827
2019-12-26 0521 386 SYF St. Francis KS USA na DM99cr 25 261 162
2019-12-26 0520 382 YPL Pickle Lake ON CAN na EO41vk 500 1754 1090
2019-12-26 0520 386 HAU 'Hauser' Helena MT USA na DN46cn 25 982 610
2019-12-26 0519 383 PI 'Tyhee' Pocatello ID USA na DN32rx 400 763 474
2019-12-26 0518 376 K2 Olds-Didsbury AB CAN na DO21wr 1553 965
2019-12-26 0515 375 BM Balmoral MB CAN na EO10id 25 1336 830
2019-12-26 0513 370 YBV Berens River MB CAN na EO12li 25 1563 971
2019-12-26 0512 368 SX Skookum (Cranbrook) BC CAN na DN29cw 500 1460 907
2019-12-26 0512 365 HQG Hugoton KS USA na DM97hd 25 386 240
2019-12-26 0511 356 ZXE Barnes (Saskatoon) SK CAN na DO62rd 39 1428 887
2019-12-26 0510 353 IN 'Raize' International Falls MN USA na EN38il 100 1367 849
2019-12-26 0509 350 NY Enderby BC CAN na DO00mp 500 1672 1039
2019-12-26 0509 350 RG 'Gally' Oklahoma City OK USA na EM15eh 400 776 482
2019-12-26 0508 346 YXL Sioux Lookout ON CAN na EO40bc 1000 1567 974
2019-12-26 0507 343 YZH Slave Lake AB CAN na DO25oh 282 1923 1195
2019-12-26 0507 344 YC Calgary AB CAN na DO31bb 1481 920
2019-12-26 0506 338 RYN 'Ryan' Tucson AZ USA na DM42kd 400 984 611
2019-12-26 0505 332 VT Buffalo Narrows SK CAN na DO55su 500 1854 1152
2019-12-26 0504 328 YTL Big Trout Lake ON CAN na EO53bt 1000 1962 1219
2019-12-26 0503 326 MA 'Farly' Midland TX USA na DM81ux 400 850 528
2019-12-26 0503 320 YQF Red Deer AB CAN na DO32bd 50 1584 984
2019-12-26 0502 317 VC La Ronge SK CAN na DO75ic 500 1751 1088
2019-12-26 0501 305 RO 'Topan' Roswell NM USA na DM73si 400 668 415
2019-12-26 0500 302 QW North Battleford SK CAN na DO52tt 40 1521 945
2019-12-26 0500 299 TV Turner Valley AB CAN na DO20ts 200 1473 915
2019-12-26 0458 284 QD The Pas MB CAN na DO93lx 500 1650 1025
2019-12-26 0456 278 CEP 'Capitan' Ruidoso NM USA na DM73hl 25 655 407
2019-12-26 0454 275 GEY Greybull WY USA na DN54xm 50 634 394
2019-12-26 0454 269 YK 'Brilliant' Castlegar BC CAN na DN19eh 1502 933
2019-12-26 0451 266 XD Edmonton AB CAN na DO33fp 1721 1069
2019-12-26 0450 257 XE Saskatoon SK CAN na DO62oe 25 1435 892
2019-12-26 0449 258 ZSJ Sandy Lake ON CAN na EO33hb 500 1754 1090
2019-12-26 0447 251 YCD Nanaimo BC CAN na CN89bd 500 1861 1156
2019-12-26 0447 250 FO Flin Flon MB CAN na DO94dq 1600 1720 1069
2019-12-26 0446 245 ARM Wharton TX USA na EL19wg 25 1373 853
2019-12-26 0445 248 PQF Mesquite TX USA na EM12rt 25 1038 645
2019-12-26 0444 242 EL 'Valtr' El Paso TX USA na DM61uu 400 845 525
2019-12-26 0443 244 TH Thompson MB CAN na EO15bt 1000 1899 1180
2019-12-26 0442 242 XC Cranbrook BC CAN na DN29cq 400 1439 894
2019-12-26 0442 233 BR Brandon MB CAN na DN99xv 25 1230 764
2019-12-26 0441 227 CG Castlegar BC CAN na DN19fk 500 1507 936
2019-12-26 0441 224 DN Dauphin MB CAN na DO91xc 25 1357 843
2019-12-26 0440 218 RL Red Lake ON CAN na EO31cb 1000 1557 968
2019-12-26 0439 200 UAB Anahim Lake BC CAN na CO72jj 1000 2131 1324
2019-12-25 2103 209 ITR 'Kit Carson' Burlington CO USA na DM89uf 25 216 134
2019-12-25 2100 251 AM 'Pande' Amarillo TX USA na DM95cd 400 538 334
2019-12-25 2058 275 GUY Guymon OK USA na DM96fq 25 411 255
2019-12-25 2057 280 GYZ 'Camp Guernsey' Guernsey WY USA na DN72pf 50 320 199
2019-12-25 2054 293 TOR Torrington WY USA na DN72wb 25 306 190
2019-12-25 2051 380 OEL Oakley KS USA na DM99oc 25 346 215
2019-12-25 2049 386 SYF St. Francis KS USA na DM99cr 25 261 162
2019-12-25 2047 395 ULS Ulysses KS USA na DM97ho 355 221
2019-12-25 2046 400 FN 'Colln' Fort Collins / Loveland CO USA na DN70mi 25 112 70
2019-12-25 2046 407 CO 'Petey' Colorado Springs CO USA na DM78pq 25 74 46
2019-12-24 0903 284 QD The Pas MB CAN na DO93lx 500 1650 1025
2019-12-24 0403 402 CV Carlz Carlsbad NM USA na DM72tg 788 490
2019-12-24 0355 353 LI 'Lasky' Little Rock AR USA na EM34uq 400 1223 760
2019-12-24 0348 350 NY Enderby BC CAN na DO00mp 500 1672 1039
2019-12-24 0336 218 RL Red Lake ON CAN na EO31cb 1000 1557 968
2019-12-24 0335 223 YYW Armstrong ON CAN na EO50lh 100 1733 1077
2019-12-24 0334 242 XC Cranbrook BC CAN na DN29cq 400 1439 894
2019-12-24 0333 244 TH Thompson MB CAN na EO15bt 1000 1899 1180
2019-12-24 0333 245 ARM Wharton TX USA na EL19wg 25 1373 853
2019-12-24 0332 248 QL Lethbridge AB CAN na DN39no 1306 811
2019-12-24 0331 251 AM 'Pande' Amarillo TX USA na DM95cd 400 538 334
2019-12-24 0330 257 XE Saskatoon SK CAN na DO62oe 25 1435 892
2019-12-24 0329 258 ZSJ Sandy Lake ON CAN na EO33hb 500 1754 1090
2019-12-24 0328 266 XD Edmonton AB CAN na DO33fp 1721 1069
2019-12-24 0327 274 YPM Pikangikum ON CAN na EO31at 25 1617 1005
2019-12-24 0326 275 GUY Guymon OK USA na DM96fq 25 411 255
2019-12-24 0326 275 GEY Greybull WY USA na DN54xm 50 634 394
2019-12-24 0324 278 CEP 'Capitan' Ruidoso NM USA na DM73hl 25 655 407
2019-12-24 0324 280 GYZ 'Camp Guernsey' Guernsey WY USA na DN72pf 50 320 199
2019-12-24 0320 332 VT Buffalo Narrows SK CAN na DO55su 500 1854 1152
2019-12-24 0315 365 AA 'Kenie' Fargo MN USA na EN17oa 100 1070 665
2019-12-24 0312 402 L4 Nipawin SK CAN na DO73xi 200 1557 968
2019-12-22 0956 341 OIN Oberlin KS USA na DM99rt 25 368 228
2019-12-22 0956 344 YC Calgary AB CAN na DO31bb 1481 920
2019-12-22 0955 346 YXL Sioux Lookout ON CAN na EO40bc 1000 1567 974
2019-12-22 0955 356 ODX Ord NE USA na EN01mo 25 553 344
2019-12-22 0955 370 YBV Berens River MB CAN na EO12li 25 1563 971
2019-12-22 0954 350 RG 'Gally' Oklahoma City OK USA na EM15eh 400 776 482
2019-12-22 0954 359 GGF Grant NE USA na DN90du 311 193
2019-12-22 0954 374 HY 'Nette' Hays KS USA na EM08js 486 302
2019-12-22 0954 400 AHQ Wahoo NE USA na EN11qf 723 449
2019-12-22 0954 414 ATS Artesia NM USA na DM72su 25 723 449
2019-12-22 0953 351 YKQ Waskaganish QC CAN na FO01pl 500 2421 1504
2019-12-22 0953 353 PG Portage MB CAN na EN09vu 25 1277 794
2019-12-22 0953 362 YZS Coral Harbour NU CAN na EP84id 500 3093 1922
2019-12-22 0953 379 DL 'Pykla' Duluth MN USA na EN36tu 1305 811
2019-12-22 0953 413 YHD Dryden ON CAN na EN39nu 250 1497 930
2019-12-22 0952 353 IN 'Raize' International Falls MN USA na EN38il 100 1367 849
2019-12-22 0952 380 GC 'Deryk' Gillette WY USA na DN74fg 25 550 342
2019-12-22 0951 355 YWP Webequie ON CAN na EO62hx 100 2012 1250
2019-12-22 0950 338 RYN 'Ryan' Tucson AZ USA na DM42kd 400 984 611
2019-12-22 0950 380 OEL Oakley KS USA na DM99oc 25 346 215
2019-12-22 0950 385 QV Yorkton SK CAN na DO81rf 100 1332 827
2019-12-22 0950 415 CBC West End (Cayman Brac) CYM ca FK09bq 600 3233 2009
2019-12-22 0949 343 YZH Slave Lake AB CAN na DO25oh 282 1923 1195
2019-12-22 0945 403 AZC Colorado City AZ USA na DM36lx 40 768 477
2019-12-22 0942 368 VX Dafoe SK CAN na DO71ru 80 1390 863
2019-12-22 0941 408 JDM 'Wheatfield' Colby KS USA na DM99lm 25 323 200
2019-12-22 0940 305 RO 'Topan' Roswell NM USA na DM73si 400 668 415
2019-12-22 0940 366 EOK Keokuk IA USA na EN40gl 25 1143 710
2019-12-22 0939 407 CO 'Petey' Colorado Springs CO USA na DM78pq 25 74 46
2019-12-22 0938 311 GK 'Jembo' Fort Smith AR USA na EM25sh 25 1017 632
2019-12-22 0938 328 YTL Big Trout Lake ON CAN na EO53bt 1000 1962 1219
2019-12-22 0938 329 YEK Arviat NU CAN na EP21xc 500 2528 1571
2019-12-22 0938 365 HQG Hugoton KS USA na DM97hd 25 386 240
2019-12-22 0937 366 YMW Maniwaki QC CAN na FN26ae 500 2457 1527
2019-12-22 0937 403 AZC Colorado City AZ USA na DM36lx 40 768 477
2019-12-22 0936 314 VTN Valentine NE USA na DN92ru 25 527 328
2019-12-22 0936 406 YLJ Meadow Lake SK CAN na DO54qd 15 1669 1037
2019-12-22 0936 417 IY 'Chukk' Charles City IA USA na EN33pd 25 1093 679
2019-12-22 0935 317 VC La Ronge SK CAN na DO75ic 500 1751 1088
2019-12-22 0935 320 TY Tyler / Indoo TX USA na EM22gj 100 1141 709
2019-12-22 0935 335 YLD Chapleau ON CAN na EN87hs 100 1954 1214
2019-12-22 0935 414 SU 'Salix' Sioux City IA USA na EN12uh 40 787 489
2019-12-22 0934 320 YQF Red Deer AB CAN na DO32bd 50 1584 984
2019-12-22 0933 329 PMV Plattsmouth NE USA na EN20bw 25 778 483
2019-12-22 0931 334 YER Fort Severn ON CAN na EO65ex 195 2238 1390
2019-12-22 0928 326 MA 'Farly' Midland TX USA na DM81ux 400 850 528
2019-12-22 0928 395 YL Lynn Lake MB CAN na DO96lt 1600 1960 1218
2019-12-22 0927 326 YQK Kenora ON CAN na EN29st 200 1419 882
2019-12-22 0922 392 FMZ 'Beklof' Fairmont NE USA na EN10fo 25 633 393
2019-12-22 0922 428 POH Pocahontas IA USA na EN22qr 25 931 578
2019-12-22 0919 287 ZWG 'Stoney' Medicine Rock (Winnipeg) MB CAN na EN19jx 17 1323 822
2019-12-22 0918 290 QR Regina SK CAN na DO70ri 100 1223 760
2019-12-22 0917 293 TOR Torrington WY USA na DN72wb 25 306 190
2019-12-22 0917 293 FBY Fairbury NE USA na EN10ke 50 661 411
2019-12-22 0916 299 TV Turner Valley AB CAN na DO20ts 200 1473 915
2019-12-22 0916 382 SP 'Huskk' Springfield IL USA na EM59cs 25 1285 798
2019-12-22 0915 360 PN Port-Menier / Ile Anticosti QC CAN na FN79tu 500 3358 2086
2019-12-22 0913 401 YPO Peawanuck ON CAN na EO74gx 125 2254 1401
2019-12-22 0910 420 FQ 'Montz' Fairmont MN USA na EN23tp 25 989 614
2019-12-22 0909 300 YIV Island Lake MB CAN na EO23qu 500 1785 1109
2019-12-22 0909 302 QW North Battleford SK CAN na DO52tt 40 1521 945
2019-12-22 0908 305 OI 'Tommi' South Sioux City NE USA na EN12sl 25 781 485
2019-12-22 0906 342 PFT 'Piney' Pinecreek MN USA na EN28ax 1279 795
2019-12-22 0904 391 DDP San Juan / Dorado / Luiz Munoz Marin Intl PR PTR ca FK68tl 2000 4351 2704
2019-12-22 0903 388 MM Fort Mc Murray AB CAN na DO46hp 125 1981 1231
2019-12-22 0902 383 CNP Chappell NE USA na DN81sb 25 274 171
2019-12-22 0901 382 YPL Pickle Lake ON CAN na EO41vk 500 1754 1090
2019-12-22 0900 356 PI 'Tungg' Peoria IL USA na EN50eo 40 1298 806
2019-12-22 0900 387 CAV Clarion IA USA na EN32cr 25 995 618
2019-12-22 0900 391 GXD Nacogdoches TX USA na EM21pp 25 1250 777
2019-12-22 0900 398 YOD Cold Lake AB CAN na DO44uj 25 1722 1070
2019-12-22 0730 400 FN 'Colln' Fort Collins / Loveland CO USA na DN70mi 25 112 70
2019-12-22 0729 395 ULS Ulysses KS USA na DM97ho 355 221
2019-12-22 0110 392 AGZ Wagner SD USA na EN03ub 25 682 424
2019-12-22 0110 392 FMZ 'Beklof' Fairmont NE USA na EN10fo 25 633 393
2019-12-22 0022 419 RYS 'Grosse Ile' Detroit / Grosse Ile MI USA na EN82kc 25 1846 1147
2019-12-21 0855 338 TT 'Stutt' Stuttgart AR USA na EM44fm 25 1293 803
2019-12-21 0850 341 DNI Denison TX USA na EM13pt 25 948 589
2019-12-21 0833 336 BV Champlain QC CAN na FN46iu 25 2820 1752
2019-12-21 0822 341 EI 'Garfy' Enid OK USA na EM16cg 704 437
2019-12-21 0820 326 PKZ 'Pickens' Pensacola FL USA na EM60jk 400 1880 1168
2019-12-21 0819 332 CZX Crosbyton TX USA na DM93jo 715 444
2019-12-21 0819 332 IC 'Piche' Wichita KS USA na EM17gn 25 669 415
2019-12-21 0815 263 CVM 'Civic Memorial' Alton IL USA na EM48xv 1272 790
2019-12-21 0814 329 AAA 'Abraham' Lincoln IL USA na EN50hd 25 1319 820
2019-12-21 0813 293 UI Quincy IL USA na EM49iv 25 1157 719
2019-12-21 0811 257 JYR York NE USA na EN10ev 25 633 393
2019-12-21 0800 233 AZN 'Amazon' St. Joseph MO USA na EM29nv 25 851 529
2019-12-21 0800 275 HIN 'Whitney' Chadron NE USA na DN82kt 25 409 254
2019-12-21 0800 326 VV Wiarton ON CAN na EN94jq 400 2028 1260
2019-12-21 0800 332 FIS 'Fish Hook' Key West FL USA na EL94cn 400 2708 1683
2019-12-21 0800 341 FO 'Barro' Fort Dodge IA USA na EN22um 25 949 589
2019-12-21 0800 347 AFK Nebraska City NE USA na EN20bo 772 480
2019-12-21 0800 349 GW 'Teock' Greenwood MS USA na EM43wo 25 1456 905
2019-12-21 0715 329 BQP Bastrop LA USA na EM42bs 25 1370 851
2019-12-21 0710 290 YYF Penticton BC CAN na DN09el 500 1624 1009
2019-12-21 0710 326 DC Princeton BC CAN na CN99rl 500 1677 1042
2019-12-21 0701 255 SW 'Blaki' Stillwater OK USA na EM16kf 50 758 471
2019-12-21 0700 233 OKS Oshkosh NE USA na DN81tj 25 306 190
2019-12-21 0700 245 FS 'Rokky' Sioux Falls SD USA na EN13ol 100 809 503
2019-12-10 0813 260 YAT 'Wapisk' Attawapiskat ON CAN na EO82sw 125 2272 1412
2019-12-10 0810 236 YZA Ashcroft BC CAN na CO90iq 500 1800 1119
2019-12-10 0809 223 YKA Kamloops BC CAN na CO90tq 500 1750 1087
2019-12-10 0807 222 WY Wrigley NT CAN na CP83gf 2929 1820
2019-12-10 0755 268 ZWL Wollaston Lake SK CAN na DO88jc 1000 2087 1297
2019-12-10 0755 269 UDE Delta MB CAN na EO00ud 50 1304 810
2019-12-10 0752 219 ZRS 'Ajax' Regina SK CAN na DO70pl 1237 768
2019-12-10 0741 312 UNT Naramata (Penticton) BC CAN na DN09eo 1632 1014
2019-12-10 0740 311 9Y Pincher Creek AB CAN na DN39am 50 1342 834
2019-12-10 0739 305 Z1 Three Hills AB CAN na DO31jq 25 1517 943
2019-12-10 0739 308 ZZD Calmar (Edmonton Intl Apt) AB CAN na DO33eg 1686 1048
2019-12-10 0738 304 FH Mc Leod (Whitecourt) AB CAN na DO24cd 25 1841 1144
2019-12-10 0737 292 ZET Devon (Edmonton Intl Apt) AB CAN na DO33di 25 1697 1054
2019-12-10 0737 326 XJ Fort St. John BC CAN na CO96ng 100 2219 1379
2019-12-10 0730 287 YSF Stony Rapids SK CAN na DO79bg 2215 1377
2019-12-10 0702 209 IB Atikokan ON CAN na EN48ft 250 1488 924
2019-12-10 0701 200 UAB Anahim Lake BC CAN na CO72jj 1000 2131 1324
2019-12-09 0814 408 MW 'Pelly' Moses Lake WA USA na DN07ic 1453 903
2019-12-09 0813 405 2K Camrose AB CAN na DO33oa 1637 1017
2019-12-09 0809 414 GRN Gordon NE USA na DN82vt 441 274
2019-12-09 0808 408 Z7 Claresholm AB CAN na DO30ea 50 1374 854
2019-12-09 0800 402 M3 Kindersley SK CAN na DO51jm 1395 867
2019-12-09 0755 400 QQ Comox BC CAN na CN79ms 1963 1220
2019-12-09 0754 399 ZHD 'Thunder' Dryden ON CAN na EN39qt 25 1506 936
2019-12-09 0753 414 8M Elk Point AB CAN na DO43ov 1679 1043
2019-12-09 0746 418 CW 'Mossy' Lake Charles LA USA na EM30jh 25 1456 905
2019-12-09 0744 347 SBX Shelby MT USA na DN48bm 50 1165 724
2019-12-09 0742 347 PA Prince Albert SK CAN na DO73cf 25 1544 960
2019-12-09 0740 340 YY Mont Joli QC CAN na FN58un 500 3061 1902
2019-12-09 0738 397 ZSS Yellowhead (Saskatoon) SK CAN na DO62pf 25 1439 894
2019-12-09 0731 394 DQ Dawson Creek BC CAN na CO95xr 50 2140 1330
2019-12-09 0730 392 PNA 'Wenz' Pinedale WY USA na DN52ct 25 568 353
2019-12-09 0729 390 VP Kuujjuaq / Kujack QC CAN na FO58sb 500 3315 2060
2019-12-09 0729 391 4W Kelsey MB CAN na EO16ra 25 1950 1211
2019-12-09 0726 420 V7BE5 Deepwater Pontus XOC iw 125
2019-12-09 0703 338 ZU Whitecourt AB CAN na DO24gb 1821 1132
2019-12-09 0702 336 LF La Salle MB CAN na EN19ip 50 1288 800
2019-12-09 0701 332 QT Thunder Bay ON CAN na EN58gi 1000 1580 982
2019-12-08 0913 275 SWW Sweetwater TX USA na DM92sl 25 858 533
2019-12-08 0910 275 AV St Andrews (Winnipeg) MB CAN na EO10lb 80 1337 831
2019-12-08 0910 284 RT Rankin Inlet NU CAN na EP32wt 1000 2742 1704
2019-12-08 0905 278 NM Matagami QC CAN na FN19dr 400 2418 1502
2019-12-08 0857 295 8C Fairview AB CAN na DO06sb 2111 1312
2019-12-08 0857 296 LGD La Grande OR USA na DN15ai 25 1268 788
2019-12-08 0853 376 YAG Fort Frances ON CAN na EN38fq 40 1370 851
2019-12-08 0852 372 YCO Coppermine / Kugluktuk NU CAN na DP27kt 1000 3226 2005
2019-12-08 0851 371 GW Jarpik Kuujjuarapik QC CAN na FO15cg 500 2667 1657
2019-12-08 0841 212 LIU Littlefield TX USA na DM83tw 25 640 397
2019-12-08 0840 212 YGX Gillam MB CAN na EO26pi 2029 1261
2019-12-08 0840 389 YWB Kelowna BC CAN na DN09et 1647 1023
2019-12-08 0840 389 CSB 'Harry Strunk' Cambridge NE USA na DN90wh 25 412 256
2019-12-08 0839 209 ITR 'Kit Carson' Burlington CO USA na DM89uf 25 216 134
2019-12-08 0839 386 SYF St. Francis KS USA na DM99cr 25 261 162
2019-12-08 0838 207 YNE Norway House MB CAN na EO13bx 1000 1707 1061
2019-12-08 0838 382 YE Fort Nelson BC CAN na CO88pt 100 2508 1558
2019-12-08 0838 383 PI 'Tyhee' Pocatello ID USA na DN32rx 400 763 474
2019-12-08 0837 379 RUE Russellville AR USA na EM35kg 25 1126 700
2019-12-08 0835 215 ZAB 'Leduc' Edmonton (Intl Apt) AB CAN na DO33gf 25 1677 1042
2019-12-08 0835 388 JW 'Pigeon' Jumping Pound Creek AB CAN na DO21qb 15 1509 938
2019-12-08 0834 214 LU 'Cultus' Abbotsford BC CAN na CN89xa 400 1738 1080
2019-12-08 0833 272 XS Prince George BC CAN na CO83qt 25 2095 1302
2019-12-08 0832 269 BEX Bloomfield IA USA na EN30sr 25 1060 659
2019-12-08 0832 272 LD 'Lubbi' Lubbock TX USA na DM93dp 25 692 430
2019-12-08 0831 376 K2 Olds-Didsbury AB CAN na DO21wr 1553 965
2019-12-08 0830 266 PYX Perryton TX USA na DM96pj 25 486 302
2019-12-08 0830 375 FS Fort Simpson NT CAN na CP91is 280 2733 1698
2019-12-08 0829 233 BR Brandon MB CAN na DN99xv 25 1230 764
2019-12-08 0829 233 QN Nakina ON CAN na EO60qe 400 1864 1158
2019-12-08 0829 264 HN 'Suybe' Shawnee OK USA na EM15mk 25 817 508
2019-12-08 0828 257 HCY Cowley WY USA na DN54sv 50 686 426
2019-12-08 0828 374 EX Rutland (Kelowna) BC CAN na DN09hw 1642 1020
2019-12-08 0827 224 DN Dauphin MB CAN na DO91xc 25 1357 843
2019-12-08 0826 221 QU Grande Prairie AB CAN na DO05od 50 2040 1268
2019-12-08 0826 257 LW Kelowna BC CAN na DO00hb 50 1651 1026
2019-12-08 0824 254 SM Fort Smith AB CAN na DO49bx 400 2346 1457
2019-12-08 0823 254 ZYC Calgary AB CAN na DO21xe 25 1499 931
2019-12-08 0822 250 FO Flin Flon MB CAN na DO94dq 1600 1720 1069
2019-12-08 0822 251 YCD Nanaimo BC CAN na CN89bd 500 1861 1156
2019-12-08 0820 248 PQF Mesquite TX USA na EM12rt 25 1038 645
2019-12-08 0819 245 YZE Gore Bay ON CAN na EN85qw 400 1947 1210
2019-12-08 0818 241 YLL Lloydminster AB CAN na DO43xh 14 1602 995
2019-12-08 0818 368 ZP Sandspit BC CAN na CO43ce 2557 1589
2019-12-08 0817 362 RPX Round Up MT USA na DN56rl 25 849 527
2019-12-08 0816 359 SDR Snyder TX USA na DM92mq 25 817 508
2019-12-08 0815 356 ZXE Barnes (Saskatoon) SK CAN na DO62rd 39 1428 887
2019-12-08 0814 356 ZF Yellowknife NT CAN na DP22sj 1000 2643 1642
2019-12-08 0813 359 YQZ Quesnel BC CAN na CO82sx 500 2025 1258
2019-12-08 0811 341 DB Burwash YT CAN na CP01mi 200 3371 2095
2019-12-08 0810 227 CG Castlegar BC CAN na DN19fk 500 1507 936
2019-12-08 0808 242 EL 'Valtr' El Paso TX USA na DM61uu 400 845 525
2019-12-08 0808 351 AE 'Dudle' Albuquerque NM USA na DM65pf 489 304
2019-12-08 0807 239 OJ High Level AB CAN na DO18kn 350 2309 1435
2019-12-08 0807 287 PE Peace River AB CAN na DO16fe 56 2092 1300
2019-12-08 0806 350 RB Resolute Bay NU CAN na EQ24mr 3000 3965 2464
2019-12-08 0806 368 VX Dafoe SK CAN na DO71ru 80 1390 863
2019-12-08 0805 233 ALJ Johnstone Point Island AK ALS na BP60ql 1000 3704 2301
2019-12-08 0805 368 SX Skookum (Cranbrook) BC CAN na DN29cw 500 1460 907
2019-12-08 0804 269 YK 'Brilliant' Castlegar BC CAN na DN19eh 1502 933
2019-12-08 0804 329 X2 Athabasca AB CAN na DO34jr 1821 1132
2019-12-08 0804 365 MA Mayo YT CAN na CP23bp 500 3384 2103
2019-12-08 0719 378 UX Hall Beach NU CAN na EP98is 400 3560 2212